Time;durP1;ratioP1;P1;durP2;ratioP2;P2;SDS_P1;SDS_P2;PMS_P1;PMS_P2;Temp;Humidity;BMP_temperature;BMP_pressure;BME280_temperature;BME280_humidity;BME280_pressure;Samples;Min_cycle;Max_cycle;Signal;HPM_P1;HPM_P2
2021/08/18 00:02:35;;;;;;;;;;;;;;;14.23;65.60;98121.05;1759363;80;20226;-88
2021/08/18 00:05:04;;;;;;;;;;;;;;;14.19;65.59;98128.86;1766337;80;26008;-88
2021/08/18 00:07:35;;;;;;;;;;;;;;;14.19;65.60;98132.80;1766274;80;21993;-89
2021/08/18 00:09:58;;;;;;;;;;;;;;;14.17;65.66;98135.59;1774288;79;25964;-85
2021/08/18 00:12:24;;;;;;;;;;;;;;;14.19;65.72;98135.44;1764623;80;24396;-86
2021/08/18 00:14:50;;;;;;;;;;;;;;;14.18;65.76;98137.23;1764638;80;20775;-85
2021/08/18 00:17:17;;;;;;;;;;;;;;;14.18;65.78;98130.66;1789484;78;25013;-85
2021/08/18 00:19:43;;;;;;;;;;;;;;;14.19;65.81;98134.13;1766418;79;21965;-85
2021/08/18 00:22:09;;;;;;;;;;;;;;;14.17;65.82;98134.28;1762607;79;25948;-84
2021/08/18 00:24:37;;;;;;;;;;;;;;;14.16;65.84;98129.98;1770808;80;24494;-85
2021/08/18 00:27:03;;;;;;;;;;;;;;;14.15;65.86;98132.73;1771137;80;20209;-85
2021/08/18 00:29:29;;;;;;;;;;;;;;;14.15;65.88;98139.32;1777219;79;25016;-85
2021/08/18 00:31:59;;;;;;;;;;;;;;;14.15;65.91;98136.69;1774043;79;20293;-85
2021/08/18 00:34:34;;;;;;;;;;;;;;;14.13;65.90;98129.41;1770425;80;26880;-85
2021/08/18 00:37:09;;;;;;;;;;;;;;;14.13;65.92;98132.03;1771143;79;25165;-85
2021/08/18 00:39:36;;;;;;;;;;;;;;;14.12;65.93;98129.91;1766173;80;20276;-85
2021/08/18 00:42:08;;;;;;;;;;;;;;;14.14;66.00;98135.85;1770778;80;25878;-85
2021/08/18 00:44:37;;;;;;;;;;;;;;;14.13;65.99;98130.23;1804356;78;22075;-86
2021/08/18 00:47:05;;;;;;;;;;;;;;;14.17;66.00;98127.70;1770766;80;25955;-84
2021/08/18 00:49:31;;;;;;;;;;;;;;;14.16;66.03;98134.41;1799330;79;24573;-85
2021/08/18 00:51:59;;;;;;;;;;;;;;;14.18;66.07;98127.22;1766995;79;20344;-84
2021/08/18 00:54:25;;;;;;;;;;;;;;;14.17;66.07;98125.06;1808037;79;25215;-85
2021/08/18 00:56:52;;;;;;;;;;;;;;;14.18;66.05;98133.80;1776181;79;22018;-86
2021/08/18 00:59:18;;;;;;;;;;;;;;;14.19;66.06;98128.86;1762151;80;25929;-84
2021/08/18 01:01:44;;;;;;;;;;;;;;;14.19;66.05;98124.91;1760026;80;24504;-85
2021/08/18 01:04:10;;;;;;;;;;;;;;;14.20;66.06;98127.89;1738428;80;20573;-85
2021/08/18 01:06:41;;;;;;;;;;;;;;;14.21;66.10;98133.51;1744945;80;25074;-85
2021/08/18 01:09:09;;;;;;;;;;;;;;;14.22;66.11;98133.86;1779066;80;22131;-85
2021/08/18 01:11:43;;;;;;;;;;;;;;;14.22;66.11;98132.06;1778649;80;26222;-85
2021/08/18 01:14:09;;;;;;;;;;;;;;;14.23;66.09;98136.37;1751309;80;24401;-85
2021/08/18 01:16:37;;;;;;;;;;;;;;;14.25;66.10;98132.26;1753089;80;20320;-87
2021/08/18 01:19:04;;;;;;;;;;;;;;;14.20;66.12;98121.31;1760952;80;25117;-88
2021/08/18 01:21:30;;;;;;;;;;;;;;;14.31;66.15;98129.56;1766355;79;22216;-86
2021/08/18 01:23:56;;;;;;;;;;;;;;;14.33;66.16;98132.42;1759745;81;26195;-86
2021/08/18 01:26:22;;;;;;;;;;;;;;;14.32;66.14;98129.44;1755435;80;24433;-86
2021/08/18 01:28:50;;;;;;;;;;;;;;;14.32;66.11;98131.23;1780039;79;20808;-86
2021/08/18 01:31:17;;;;;;;;;;;;;;;14.34;66.13;98127.98;1785439;79;24956;-86
2021/08/18 01:33:43;;;;;;;;;;;;;;;14.36;66.14;98126.86;1782293;79;22217;-87
2021/08/18 01:36:09;;;;;;;;;;;;;;;14.40;66.16;98124.33;1748465;80;26029;-87
2021/08/18 01:38:35;;;;;;;;;;;;;;;14.47;66.20;98116.71;1797504;79;20229;-87
2021/08/18 01:41:01;;;;;;;;;;;;;;;14.49;66.24;98113.47;1781939;78;20234;-86
2021/08/18 01:43:27;;;;;;;;;;;;;;;14.52;66.29;98108.73;1750809;79;20278;-86
2021/08/18 01:45:53;;;;;;;;;;;;;;;14.52;66.32;98107.42;1778230;80;22032;-85
2021/08/18 01:48:21;;;;;;;;;;;;;;;14.55;66.37;98101.06;1779478;80;26029;-86
2021/08/18 01:50:54;;;;;;;;;;;;;;;14.54;66.40;98089.69;1788309;79;24161;-85
2021/08/18 01:53:21;;;;;;;;;;;;;;;14.57;66.42;98093.34;1759043;80;20216;-86
2021/08/18 01:55:47;;;;;;;;;;;;;;;14.63;66.47;98095.42;1796559;78;24998;-86
2021/08/18 01:58:13;;;;;;;;;;;;;;;14.67;66.55;98089.89;1802149;78;21513;-86
2021/08/18 02:00:39;;;;;;;;;;;;;;;14.68;66.59;98088.41;1810547;78;21164;-86
2021/08/18 02:03:05;;;;;;;;;;;;;;;14.70;66.67;98087.80;1793598;79;24471;-85
2021/08/18 02:05:32;;;;;;;;;;;;;;;14.72;66.71;98087.66;1795549;79;20318;-86
2021/08/18 02:07:59;;;;;;;;;;;;;;;14.78;66.70;98091.05;1760497;79;25024;-86
2021/08/18 02:10:27;;;;;;;;;;;;;;;14.85;66.74;98097.39;1759616;79;22061;-85
2021/08/18 02:12:54;;;;;;;;;;;;;;;14.91;66.77;98095.52;1792269;79;26133;-86
2021/08/18 02:15:22;;;;;;;;;;;;;;;14.91;66.81;98089.76;1798391;79;24478;-85
2021/08/18 02:17:50;;;;;;;;;;;;;;;14.89;66.83;98096.96;1798522;79;20334;-86
2021/08/18 02:20:18;;;;;;;;;;;;;;;14.83;66.82;98087.50;1782518;79;25064;-85
2021/08/18 02:22:49;;;;;;;;;;;;;;;14.82;66.88;98089.79;1807161;77;22087;-86
2021/08/18 02:25:17;;;;;;;;;;;;;;;14.85;66.92;98094.76;1769497;79;26200;-90
2021/08/18 02:27:43;;;;;;;;;;;;;;;14.91;66.96;98090.24;1764258;79;25529;-86
2021/08/18 02:30:10;;;;;;;;;;;;;;;14.96;66.96;98090.16;1772285;80;20302;-85
2021/08/18 02:32:36;;;;;;;;;;;;;;;14.99;66.97;98088.58;1774645;80;25049;-85
2021/08/18 02:35:02;;;;;;;;;;;;;;;15.01;66.97;98086.61;1774720;80;20259;-85
2021/08/18 02:37:28;;;;;;;;;;;;;;;14.98;66.97;98091.34;1797350;79;26103;-88
2021/08/18 02:39:54;;;;;;;;;;;;;;;14.96;66.94;98095.43;1769391;79;24395;-89
2021/08/18 02:42:20;;;;;;;;;;;;;;;14.97;66.91;98094.95;1809530;78;20293;-90
2021/08/18 02:44:51;;;;;;;;;;;;;;;14.96;66.93;98105.97;1795970;79;25044;-89
2021/08/18 02:47:20;;;;;;;;;;;;;;;14.93;66.94;98100.16;1796296;79;22692;-89
2021/08/18 02:49:46;;;;;;;;;;;;;;;14.89;66.95;98103.55;1798944;79;26214;-89
2021/08/18 02:52:12;;;;;;;;;;;;;;;14.84;66.96;98097.88;1778299;79;24890;-87
2021/08/18 02:54:38;;;;;;;;;;;;;;;14.78;66.95;98097.16;1771682;80;20327;-87
2021/08/18 02:57:04;;;;;;;;;;;;;;;14.74;66.91;98102.34;1769916;80;24937;-84
2021/08/18 02:59:30;;;;;;;;;;;;;;;14.70;66.95;98094.86;1760789;79;20240;-89
2021/08/18 03:01:57;;;;;;;;;;;;;;;14.64;67.00;98097.09;1768253;79;26719;-89
2021/08/18 03:04:23;;;;;;;;;;;;;;;14.64;67.02;98089.19;1776789;80;24422;-90
2021/08/18 03:06:55;;;;;;;;;;;;;;;14.66;67.03;98090.38;1770842;80;20276;-90
2021/08/18 03:09:23;;;;;;;;;;;;;;;14.66;67.04;98091.70;1745572;80;25164;-89
2021/08/18 03:11:50;;;;;;;;;;;;;;;14.71;67.04;98096.05;1739926;81;22086;-89
2021/08/18 03:14:16;;;;;;;;;;;;;;;14.72;67.08;98096.88;1738725;80;25945;-89
2021/08/18 03:16:42;;;;;;;;;;;;;;;14.68;67.14;98095.00;1741864;80;24411;-89
2021/08/18 03:19:10;;;;;;;;;;;;;;;14.71;67.24;98097.37;1743996;81;20337;-87
2021/08/18 03:21:36;;;;;;;;;;;;;;;14.72;67.24;98099.03;1736202;81;24962;-87
2021/08/18 03:24:02;;;;;;;;;;;;;;;14.73;67.24;98098.55;1743765;80;22030;-87
2021/08/18 03:26:28;;;;;;;;;;;;;;;14.74;67.26;98099.70;1746626;80;26011;-87
2021/08/18 03:28:54;;;;;;;;;;;;;;;14.75;67.29;98105.33;1771891;80;24523;-88
2021/08/18 03:31:20;;;;;;;;;;;;;;;14.79;67.29;98106.70;1761546;80;20330;-86
2021/08/18 03:33:49;;;;;;;;;;;;;;;14.86;67.32;98109.60;1751432;80;20859;-86
2021/08/18 03:36:15;;;;;;;;;;;;;;;14.89;67.34;98106.19;1771444;79;21773;-86
2021/08/18 03:38:41;;;;;;;;;;;;;;;14.94;67.38;98107.10;1760338;80;26004;-89
2021/08/18 03:41:07;;;;;;;;;;;;;;;14.88;67.36;98108.98;1750237;80;20240;-89
2021/08/18 03:43:33;;;;;;;;;;;;;;;14.82;67.36;98114.33;1776887;79;20365;-89
2021/08/18 03:45:59;;;;;;;;;;;;;;;14.76;67.34;98116.70;1760254;80;20323;-89
2021/08/18 03:48:26;;;;;;;;;;;;;;;14.73;67.35;98107.77;1755393;79;22762;-87
2021/08/18 03:50:52;;;;;;;;;;;;;;;14.74;67.37;98112.04;1760630;80;25887;-86
2021/08/18 03:53:18;;;;;;;;;;;;;;;14.73;67.42;98104.63;1776674;79;20451;-89
2021/08/18 03:55:44;;;;;;;;;;;;;;;14.67;67.43;98105.21;1766914;79;20241;-89
2021/08/18 03:58:14;;;;;;;;;;;;;;;14.62;67.46;98106.92;1770136;79;25118;-89
2021/08/18 04:00:40;;;;;;;;;;;;;;;14.58;67.47;98104.23;1733781;80;22019;-89
2021/08/18 04:03:09;;;;;;;;;;;;;;;14.53;67.43;98106.45;1775635;79;21051;-89
2021/08/18 04:05:37;;;;;;;;;;;;;;;14.50;67.41;98113.34;1759170;79;24571;-89
2021/08/18 04:08:07;;;;;;;;;;;;;;;14.52;67.44;98110.54;1737264;80;20228;-89
2021/08/18 04:10:32;;;;;;;;;;;;;;;14.52;67.47;98112.69;1736838;80;24999;-85
2021/08/18 04:12:59;;;;;;;;;;;;;;;14.52;67.53;98117.95;1772685;79;21007;-84
2021/08/18 04:15:35;;;;;;;;;;;;;;;14.51;67.57;98118.92;1768337;79;26830;-84
2021/08/18 04:18:03;;;;;;;;;;;;;;;14.54;67.57;98116.51;1767805;79;25158;-87
2021/08/18 04:20:29;;;;;;;;;;;;;;;14.60;67.64;98131.75;1763900;79;20165;-87
2021/08/18 04:22:57;;;;;;;;;;;;;;;14.60;67.71;98131.27;1703199;82;20194;-85
2021/08/18 04:25:23;;;;;;;;;;;;;;;14.56;67.77;98133.81;1774355;79;20275;-87
2021/08/18 04:27:49;;;;;;;;;;;;;;;14.56;67.77;98136.97;1770031;79;26131;-87
2021/08/18 04:30:17;;;;;;;;;;;;;;;14.59;67.83;98141.94;1728543;81;39265;-89
2021/08/18 04:32:43;;;;;;;;;;;;;;;14.58;67.87;98138.47;1751360;81;20209;-85
2021/08/18 04:35:10;;;;;;;;;;;;;;;14.59;67.88;98132.72;1753650;81;25096;-85
2021/08/18 04:37:37;;;;;;;;;;;;;;;14.64;67.93;98141.03;1765925;80;22049;-87
2021/08/18 04:40:05;;;;;;;;;;;;;;;14.64;68.02;98141.87;1736400;81;21239;-87
2021/08/18 04:42:35;;;;;;;;;;;;;;;14.58;68.04;98146.85;1753629;81;24356;-85
2021/08/18 04:45:08;;;;;;;;;;;;;;;14.54;68.04;98151.58;1745080;81;20655;-86
2021/08/18 04:47:37;;;;;;;;;;;;;;;14.58;68.07;98145.05;1756897;81;25888;-85
2021/08/18 04:50:07;;;;;;;;;;;;;;;14.64;68.11;98148.94;1771222;79;21982;-86
2021/08/18 04:52:33;;;;;;;;;;;;;;;14.65;68.18;98149.28;1753651;80;26219;-86
2021/08/18 04:54:59;;;;;;;;;;;;;;;14.68;68.24;98154.74;1759260;81;24607;-86
2021/08/18 04:57:27;;;;;;;;;;;;;;;14.71;68.27;98159.75;1754518;80;20534;-86
2021/08/18 04:59:53;;;;;;;;;;;;;;;14.72;68.30;98147.77;1737509;80;25010;-86
2021/08/18 05:02:19;;;;;;;;;;;;;;;14.73;68.36;98148.08;1741762;80;20334;-86
2021/08/18 05:04:51;;;;;;;;;;;;;;;14.79;68.42;98146.69;1736744;80;25975;-86
2021/08/18 05:07:18;;;;;;;;;;;;;;;14.80;68.49;98145.25;1747026;80;24500;-86
2021/08/18 05:09:44;;;;;;;;;;;;;;;14.84;68.57;98152.38;1763167;80;20307;-85
2021/08/18 05:12:10;;;;;;;;;;;;;;;14.85;68.64;98150.92;1766833;80;20453;-86
2021/08/18 05:14:36;;;;;;;;;;;;;;;14.81;68.67;98155.30;1766145;80;22108;-89
2021/08/18 05:17:02;;;;;;;;;;;;;;;14.80;68.70;98154.47;1764677;80;26030;-88
2021/08/18 05:19:30;;;;;;;;;;;;;;;14.79;68.75;98157.23;1768505;80;25056;-88
2021/08/18 05:21:56;;;;;;;;;;;;;;;14.78;68.82;98156.91;1772558;80;20532;-89
2021/08/18 05:24:22;;;;;;;;;;;;;;;14.76;68.81;98160.16;1741449;81;20805;-89
2021/08/18 05:26:48;;;;;;;;;;;;;;;14.72;68.83;98167.52;1767794;80;20292;-90
2021/08/18 05:29:14;;;;;;;;;;;;;;;14.70;68.85;98168.62;1768693;80;26024;-89
2021/08/18 05:31:42;;;;;;;;;;;;;;;14.66;68.84;98169.39;1749587;80;25686;-89
2021/08/18 05:34:07;;;;;;;;;;;;;;;14.64;68.88;98167.38;1765416;79;20253;-89
2021/08/18 05:36:37;;;;;;;;;;;;;;;14.65;68.94;98168.55;1768360;80;20808;-89
2021/08/18 05:39:03;;;;;;;;;;;;;;;14.67;68.99;98168.91;1770344;80;21842;-89
2021/08/18 05:41:29;;;;;;;;;;;;;;;14.67;69.03;98175.02;1768324;80;25944;-89
2021/08/18 05:43:55;;;;;;;;;;;;;;;14.67;69.06;98166.27;1767842;80;20313;-89
2021/08/18 05:46:21;;;;;;;;;;;;;;;14.73;69.12;98169.67;1768294;80;20814;-89
2021/08/18 05:48:47;;;;;;;;;;;;;;;14.76;69.17;98162.80;1736103;82;20767;-89
2021/08/18 05:51:16;;;;;;;;;;;;;;;14.75;69.19;98168.55;1746746;80;21464;-89
2021/08/18 05:53:50;;;;;;;;;;;;;;;14.78;69.25;98162.18;1737586;82;25999;-86
2021/08/18 05:56:10;;;;;;;;;;;;;;;14.75;69.28;98169.03;1768015;79;24695;-86
2021/08/18 05:58:36;;;;;;;;;;;;;;;14.78;69.34;98163.02;1767504;79;20358;-86
2021/08/18 06:01:07;;;;;;;;;;;;;;;14.80;69.40;98162.85;1753904;80;20292;-86
2021/08/18 06:03:34;;;;;;;;;;;;;;;14.82;69.43;98170.14;1755291;80;22105;-86
2021/08/18 06:06:06;;;;;;;;;;;;;;;14.88;69.46;98165.15;1733859;81;26147;-86
2021/08/18 06:08:34;;;;;;;;;;;;;;;14.90;69.52;98167.62;1796070;78;22793;-86
2021/08/18 06:11:00;;;;;;;;;;;;;;;14.95;69.57;98172.81;1799249;78;20339;-86
2021/08/18 06:13:26;;;;;;;;;;;;;;;15.04;69.68;98168.03;1798887;78;20510;-86
2021/08/18 06:15:52;;;;;;;;;;;;;;;15.12;69.77;98168.62;1797325;78;22006;-86
2021/08/18 06:18:18;;;;;;;;;;;;;;;15.17;69.82;98169.52;1798930;78;26029;-86
2021/08/18 06:20:44;;;;;;;;;;;;;;;15.22;69.85;98173.39;1799285;78;25275;-86
2021/08/18 06:23:10;;;;;;;;;;;;;;;15.28;69.89;98174.14;1799678;78;20895;-86
2021/08/18 06:25:36;;;;;;;;;;;;;;;15.33;69.95;98169.27;1802174;77;25135;-86
2021/08/18 06:28:02;;;;;;;;;;;;;;;15.39;69.98;98176.61;1795967;78;20312;-86
2021/08/18 06:30:28;;;;;;;;;;;;;;;15.45;70.02;98178.67;1802826;78;25984;-86
2021/08/18 06:32:56;;;;;;;;;;;;;;;15.59;70.06;98168.67;1796724;78;21306;-85
2021/08/18 06:35:22;;;;;;;;;;;;;;;15.66;70.11;98169.73;1798066;78;20808;-85
2021/08/18 06:37:48;;;;;;;;;;;;;;;15.74;70.16;98170.69;1800861;78;21663;-86
2021/08/18 06:40:14;;;;;;;;;;;;;;;15.85;70.22;98175.78;1801668;78;20255;-86
2021/08/18 06:42:41;;;;;;;;;;;;;;;15.93;70.26;98176.34;1770869;79;20978;-87
2021/08/18 06:45:09;;;;;;;;;;;;;;;16.01;70.27;98171.17;1773128;79;25286;-87
2021/08/18 06:47:36;;;;;;;;;;;;;;;16.08;70.27;98168.30;1753019;80;20574;-87
2021/08/18 06:50:08;;;;;;;;;;;;;;;16.14;70.26;98164.23;1749899;80;24557;-87
2021/08/18 06:52:31;;;;;;;;;;;;;;;16.17;70.22;98167.39;1749394;80;22697;-87
2021/08/18 06:54:57;;;;;;;;;;;;;;;16.22;70.18;98165.14;1795362;78;25951;-87
2021/08/18 06:57:26;;;;;;;;;;;;;;;16.29;70.13;98163.58;1800128;78;24234;-87
2021/08/18 06:59:54;;;;;;;;;;;;;;;16.39;70.12;98164.82;1802881;77;20237;-87
2021/08/18 07:02:21;;;;;;;;;;;;;;;16.39;70.06;98162.17;1803899;78;25579;-87
2021/08/18 07:04:47;;;;;;;;;;;;;;;16.40;69.97;98164.33;1792545;79;21962;-87
2021/08/18 07:07:13;;;;;;;;;;;;;;;16.41;69.90;98160.72;1773981;79;21574;-85
2021/08/18 07:09:38;;;;;;;;;;;;;;;16.39;69.78;98159.53;1780376;79;20313;-85
2021/08/18 07:12:05;;;;;;;;;;;;;;;16.35;69.65;98167.42;1798737;77;20235;-85
2021/08/18 07:14:31;;;;;;;;;;;;;;;16.30;69.53;98170.52;1806172;77;25150;-85
2021/08/18 07:16:57;;;;;;;;;;;;;;;16.26;69.42;98168.30;1763971;80;22121;-85
2021/08/18 07:19:23;;;;;;;;;;;;;;;16.26;69.29;98174.41;1801097;79;21185;-85
2021/08/18 07:21:52;;;;;;;;;;;;;;;16.33;69.21;98175.98;1802046;79;20247;-85
2021/08/18 07:24:18;;;;;;;;;;;;;;;16.43;69.14;98174.09;1780293;79;20225;-85
2021/08/18 07:26:44;;;;;;;;;;;;;;;16.50;69.07;98175.66;1807165;77;20264;-85
2021/08/18 07:29:13;;;;;;;;;;;;;;;16.54;68.98;98173.04;1805252;77;20874;-85
2021/08/18 07:31:39;;;;;;;;;;;;;;;16.61;68.90;98174.97;1801369;77;25979;-89
2021/08/18 07:34:06;;;;;;;;;;;;;;;16.67;68.81;98166.93;1805459;78;20269;-89
2021/08/18 07:36:32;;;;;;;;;;;;;;;16.72;68.72;98160.21;1805726;78;20351;-89
2021/08/18 07:38:58;;;;;;;;;;;;;;;16.80;68.66;98171.32;1807631;78;25020;-89
2021/08/18 07:41:26;;;;;;;;;;;;;;;16.85;68.60;98166.44;1808800;78;20866;-89
2021/08/18 07:43:52;;;;;;;;;;;;;;;16.91;68.53;98168.44;1810601;77;26623;-89
2021/08/18 07:46:18;;;;;;;;;;;;;;;17.02;68.47;98160.78;1805837;78;20914;-87
2021/08/18 07:48:45;;;;;;;;;;;;;;;17.13;68.37;98161.34;1808300;77;20243;-87
2021/08/18 07:51:10;;;;;;;;;;;;;;;17.27;68.37;98157.80;1799308;79;25036;-87
2021/08/18 07:53:41;;;;;;;;;;;;;;;17.35;68.31;98161.31;1775990;79;22029;-87
2021/08/18 07:56:05;;;;;;;;;;;;;;;17.39;68.23;98166.66;1762312;80;26501;-87
2021/08/18 07:58:31;;;;;;;;;;;;;;;17.42;68.11;98162.36;1758227;81;24542;-87
2021/08/18 08:00:57;;;;;;;;;;;;;;;17.39;67.96;98148.13;1764581;80;20267;-87
2021/08/18 08:03:22;;;;;;;;;;;;;;;17.48;67.85;98158.25;1797877;77;20220;-87
2021/08/18 08:05:48;;;;;;;;;;;;;;;17.44;67.63;98158.23;1796998;77;20263;-87
2021/08/18 08:08:14;;;;;;;;;;;;;;;17.41;67.45;98159.86;1773020;79;26097;-87
2021/08/18 08:10:45;;;;;;;;;;;;;;;17.42;67.35;98151.77;1803982;77;20859;-87
2021/08/18 08:13:11;;;;;;;;;;;;;;;17.47;67.23;98149.97;1802238;79;20487;-87
2021/08/18 08:15:37;;;;;;;;;;;;;;;17.50;67.22;98147.87;1798677;79;20271;-86
2021/08/18 08:18:03;;;;;;;;;;;;;;;17.59;67.16;98150.05;1766187;80;20368;-87
2021/08/18 08:20:29;;;;;;;;;;;;;;;17.66;67.11;98146.31;1770032;80;21165;-87
2021/08/18 08:22:56;;;;;;;;;;;;;;;17.69;66.98;98145.48;1805995;79;24502;-87
2021/08/18 08:25:22;;;;;;;;;;;;;;;17.72;66.78;98153.12;1806198;79;20324;-86
2021/08/18 08:27:52;;;;;;;;;;;;;;;17.80;66.67;98153.64;1754079;80;21860;-87
2021/08/18 08:30:18;;;;;;;;;;;;;;;17.76;66.40;98150.49;1810103;78;21915;-88
2021/08/18 08:32:44;;;;;;;;;;;;;;;17.76;66.23;98146.52;1801770;79;26029;-89
2021/08/18 08:35:16;;;;;;;;;;;;;;;17.80;66.15;98144.38;1800802;79;20325;-89
2021/08/18 08:37:42;;;;;;;;;;;;;;;17.85;66.03;98148.20;1761235;80;20352;-89
2021/08/18 08:40:09;;;;;;;;;;;;;;;17.89;65.86;98142.11;1778360;80;20795;-89
2021/08/18 08:42:36;;;;;;;;;;;;;;;17.93;65.72;98138.15;1772333;79;21902;-89
2021/08/18 08:45:05;;;;;;;;;;;;;;;17.95;65.59;98136.98;1802597;79;26057;-89
2021/08/18 08:47:33;;;;;;;;;;;;;;;18.05;65.49;98137.36;1775960;80;24408;-90
2021/08/18 08:49:59;;;;;;;;;;;;;;;18.17;65.42;98134.72;1729756;81;20255;-89
2021/08/18 08:52:25;;;;;;;;;;;;;;;18.21;65.32;98128.13;1758428;81;25061;-89
2021/08/18 08:54:52;;;;;;;;;;;;;;;18.22;65.08;98127.95;1791728;79;21983;-89
2021/08/18 08:57:21;;;;;;;;;;;;;;;18.35;64.98;98132.78;1791833;78;25932;-89
2021/08/18 08:59:53;;;;;;;;;;;;;;;18.44;64.93;98129.66;1766288;79;25345;-89
2021/08/18 09:02:20;;;;;;;;;;;;;;;18.53;64.80;98129.99;1761446;80;20509;-89
2021/08/18 09:04:46;;;;;;;;;;;;;;;18.59;64.61;98131.53;1764792;80;25132;-89
2021/08/18 09:07:14;;;;;;;;;;;;;;;18.71;64.51;98126.73;1767907;80;21343;-89
2021/08/18 09:09:52;;;;;;;;;;;;;;;18.79;64.38;98126.72;1791471;78;26096;-89
2021/08/18 09:12:20;;;;;;;;;;;;;;;18.86;64.24;98133.02;1762862;80;24764;-89
2021/08/18 09:14:48;;;;;;;;;;;;;;;18.90;64.01;98129.03;1779596;80;20370;-86
2021/08/18 09:17:24;;;;;;;;;;;;;;;18.93;63.79;98122.05;1774172;80;25050;-85
2021/08/18 09:20:10;;;;;;;;;;;;;;;18.99;63.58;98119.23;1770075;80;22649;-85
2021/08/18 09:22:39;;;;;;;;;;;;;;;19.04;63.32;98121.71;1765634;80;26040;-85
2021/08/18 09:25:09;;;;;;;;;;;;;;;19.15;63.15;98114.73;1759150;79;24438;-85
2021/08/18 09:27:42;;;;;;;;;;;;;;;19.19;62.90;98116.57;1780114;80;20229;-85
2021/08/18 09:30:11;;;;;;;;;;;;;;;19.20;62.65;98120.89;1779769;80;25037;-85
2021/08/18 09:32:37;;;;;;;;;;;;;;;19.25;62.39;98119.88;1777852;80;21955;-85
2021/08/18 09:35:08;;;;;;;;;;;;;;;19.28;62.16;98126.66;1774418;80;21238;-85
2021/08/18 09:37:34;;;;;;;;;;;;;;;19.30;61.94;98118.87;1777218;80;25426;-85
2021/08/18 09:40:00;;;;;;;;;;;;;;;19.34;61.82;98124.66;1775109;80;20428;-85
2021/08/18 09:42:31;;;;;;;;;;;;;;;19.40;61.71;98122.65;1779312;80;20777;-85
2021/08/18 09:45:15;;;;;;;;;;;;;;;19.46;61.65;98119.35;1779838;80;22086;-85
2021/08/18 09:48:00;;;;;;;;;;;;;;;19.55;61.51;98119.64;1778683;80;26138;-85
2021/08/18 09:50:28;;;;;;;;;;;;;;;19.70;61.49;98125.89;1773342;80;24525;-89
2021/08/18 09:52:56;;;;;;;;;;;;;;;19.77;61.38;98120.22;1782319;80;20213;-89
2021/08/18 09:55:23;;;;;;;;;;;;;;;19.77;61.04;98115.41;1741854;80;25299;-89
2021/08/18 09:57:49;;;;;;;;;;;;;;;19.80;60.76;98113.75;1774739;80;22847;-89
2021/08/18 10:00:21;;;;;;;;;;;;;;;19.82;60.49;98109.91;1776958;80;26080;-89
2021/08/18 10:02:47;;;;;;;;;;;;;;;19.73;59.98;98108.30;1774281;80;24552;-89
2021/08/18 10:05:14;;;;;;;;;;;;;;;19.77;59.75;98108.77;1779941;80;20887;-89
2021/08/18 10:07:40;;;;;;;;;;;;;;;19.81;59.56;98112.23;1779753;80;25049;-89
2021/08/18 10:10:07;;;;;;;;;;;;;;;19.74;59.21;98114.44;1778545;80;21981;-89
2021/08/18 10:12:32;;;;;;;;;;;;;;;19.69;58.88;98110.15;1774899;80;26072;-88
2021/08/18 10:15:04;;;;;;;;;;;;;;;19.74;58.70;98111.78;1775853;80;20725;-89
2021/08/18 10:17:30;;;;;;;;;;;;;;;19.78;58.42;98118.40;1778913;80;20596;-89
2021/08/18 10:19:57;;;;;;;;;;;;;;;19.85;58.18;98103.44;1774661;80;25037;-89
2021/08/18 10:22:25;;;;;;;;;;;;;;;20.01;58.15;98104.68;1777974;80;22114;-89
2021/08/18 10:24:51;;;;;;;;;;;;;;;20.19;58.19;98102.56;1783686;80;25895;-89
2021/08/18 10:27:21;;;;;;;;;;;;;;;20.25;58.07;98101.86;1771618;80;25174;-89
2021/08/18 10:29:56;;;;;;;;;;;;;;;20.23;57.87;98105.71;1764076;80;20201;-89
2021/08/18 10:32:24;;;;;;;;;;;;;;;20.17;57.65;98109.89;1769858;80;25058;-89
2021/08/18 10:34:53;;;;;;;;;;;;;;;20.15;57.43;98107.91;1777926;79;21855;-89
2021/08/18 10:37:20;;;;;;;;;;;;;;;20.14;57.33;98106.24;1779541;80;26040;-89
2021/08/18 10:39:56;;;;;;;;;;;;;;;20.03;57.10;98103.48;1777303;80;24561;-89
2021/08/18 10:42:17;;;;;;;;;;;;;;;19.91;56.88;98106.20;1774942;80;20304;-89
2021/08/18 10:44:46;;;;;;;;;;;;;;;19.79;56.69;98109.44;1771838;80;24948;-89
2021/08/18 10:47:29;;;;;;;;;;;;;;;19.76;56.53;98113.25;1775507;80;21975;-89
2021/08/18 10:49:57;;;;;;;;;;;;;;;19.83;56.48;98112.06;1771871;80;25505;-89
2021/08/18 10:52:31;;;;;;;;;;;;;;;19.92;56.39;98107.86;1778904;80;24532;-89
2021/08/18 10:55:10;;;;;;;;;;;;;;;20.01;56.26;98108.66;1770478;80;20307;-89
2021/08/18 10:57:44;;;;;;;;;;;;;;;20.07;56.13;98107.14;1775986;80;25642;-89
2021/08/18 11:00:13;;;;;;;;;;;;;;;20.16;56.13;98102.92;1784596;79;22015;-89
2021/08/18 11:02:47;;;;;;;;;;;;;;;20.22;56.05;98108.87;1779594;80;26887;-90
2021/08/18 11:05:14;;;;;;;;;;;;;;;20.29;56.01;98100.50;1784285;79;24408;-89
2021/08/18 11:10:33;;;;;;;;;;;;;;;20.36;55.91;98104.64;1776367;80;24990;-89
2021/08/18 11:13:00;;;;;;;;;;;;;;;20.35;55.74;98101.16;1778653;80;22690;-89
2021/08/18 11:15:33;;;;;;;;;;;;;;;20.36;55.68;98094.01;1778487;80;26007;-86
2021/08/18 11:18:05;;;;;;;;;;;;;;;20.40;55.62;98100.65;1773171;80;23924;-86
2021/08/18 11:20:31;;;;;;;;;;;;;;;20.46;55.62;98104.73;1785961;79;20319;-85
2021/08/18 11:23:00;;;;;;;;;;;;;;;20.52;55.51;98098.38;1781625;80;20796;-85
2021/08/18 11:25:31;;;;;;;;;;;;;;;20.54;55.30;98104.35;1779871;80;21990;-86
2021/08/18 11:27:55;;;;;;;;;;;;;;;20.52;55.08;98095.22;1781309;80;26061;-86
2021/08/18 11:30:33;;;;;;;;;;;;;;;20.54;54.95;98103.85;1775091;80;24471;-86
2021/08/18 11:33:18;;;;;;;;;;;;;;;20.60;54.92;98098.33;1788138;79;20240;-85
2021/08/18 11:35:44;;;;;;;;;;;;;;;20.61;54.74;98093.34;1784157;80;25026;-86
2021/08/18 11:38:10;;;;;;;;;;;;;;;20.55;54.55;98106.02;1783159;80;22525;-85
2021/08/18 11:40:38;;;;;;;;;;;;;;;20.47;54.38;98102.91;1782553;79;20998;-86
2021/08/18 11:43:06;;;;;;;;;;;;;;;20.48;54.28;98101.91;1780572;80;24618;-86
2021/08/18 11:45:34;;;;;;;;;;;;;;;20.53;54.19;98102.69;1778817;79;20313;-86
2021/08/18 11:48:10;;;;;;;;;;;;;;;20.42;53.98;98105.27;1787545;80;25726;-86
2021/08/18 11:50:36;;;;;;;;;;;;;;;20.26;53.82;98102.19;1779401;80;22021;-86
2021/08/18 11:53:04;;;;;;;;;;;;;;;20.11;53.76;98107.11;1784357;79;26034;-89
2021/08/18 11:55:38;;;;;;;;;;;;;;;19.97;53.64;98104.67;1780645;80;24568;-86
2021/08/18 11:58:07;;;;;;;;;;;;;;;19.96;53.63;98105.70;1780095;80;20244;-87
2021/08/18 12:00:35;;;;;;;;;;;;;;;20.01;53.78;98104.18;1758722;80;24988;-85
2021/08/18 12:03:02;;;;;;;;;;;;;;;20.04;53.76;98106.97;1756870;80;21968;-90
2021/08/18 12:05:38;;;;;;;;;;;;;;;20.05;53.79;98108.63;1751499;80;26079;-85
2021/08/18 12:08:08;;;;;;;;;;;;;;;20.01;53.75;98109.99;1752218;80;24530;-85
2021/08/18 12:10:39;;;;;;;;;;;;;;;20.04;53.79;98104.31;1754505;80;20568;-87
2021/08/18 12:13:10;;;;;;;;;;;;;;;20.03;53.75;98103.48;1752954;80;25205;-88
2021/08/18 12:15:45;;;;;;;;;;;;;;;19.98;53.79;98101.86;1755690;80;21955;-88
2021/08/18 12:18:27;;;;;;;;;;;;;;;19.93;53.77;98110.02;1757468;80;26140;-89
2021/08/18 12:20:53;;;;;;;;;;;;;;;19.94;53.81;98107.20;1756547;80;24291;-89
2021/08/18 12:23:26;;;;;;;;;;;;;;;20.05;53.91;98112.62;1754072;80;20371;-88
2021/08/18 12:25:52;;;;;;;;;;;;;;;20.11;53.81;98105.28;1754732;80;24964;-85
2021/08/18 12:28:19;;;;;;;;;;;;;;;20.27;53.89;98101.19;1756793;80;22072;-84
2021/08/18 12:30:57;;;;;;;;;;;;;;;20.43;54.02;98109.59;1769778;80;26072;-84
2021/08/18 12:33:24;;;;;;;;;;;;;;;20.59;54.24;98104.64;1738912;81;24503;-84
2021/08/18 12:36:11;;;;;;;;;;;;;;;20.60;54.13;98107.63;1765586;80;20364;-84
2021/08/18 12:38:37;;;;;;;;;;;;;;;20.55;54.03;98100.20;1741217;80;24968;-84
2021/08/18 12:41:04;;;;;;;;;;;;;;;20.57;53.99;98103.98;1741412;81;20362;-87
2021/08/18 12:43:30;;;;;;;;;;;;;;;20.56;53.82;98099.70;1742980;81;26193;-87
2021/08/18 12:45:56;;;;;;;;;;;;;;;20.56;53.68;98087.73;1743488;80;20249;-87
2021/08/18 12:48:23;;;;;;;;;;;;;;;20.64;53.79;98092.47;1742986;80;20321;-87
2021/08/18 12:50:49;;;;;;;;;;;;;;;20.69;53.76;98087.94;1772135;79;24938;-87
2021/08/18 12:53:16;;;;;;;;;;;;;;;20.74;53.69;98092.22;1745435;80;21888;-87
2021/08/18 12:55:43;;;;;;;;;;;;;;;20.74;53.51;98089.05;1740460;80;25985;-87